MAPA DE AEROPUERTO

INFORMACIÓN METAR y TAF

METAR FOR LXGB
ADDS - METARS form results

(1827 UTC 23 October 2021)
Data provider http://aviationweather.gov/metar/data/
 
METAR text: LXGB 231750Z 08008KT 9999 SCT020 20/17 Q1020 TEMPO FEW020
Conditions at: LXGB (GIBRALTAR (CIV/M, GI) observed 1750 UTC 23 October 2021
Temperature: 20.0°C (68°F)
Dewpoint: 17.0°C (63°F) [RH = 83%]
Pressure (altimeter): 30.12 inches Hg (1020.0 mb)
Winds: from the E (80 degrees) at 9 MPH (8 knots; 4.1 m/s)
Visibility: 6 or more miles (10+ km)
Ceiling: at least 12,000 feet AGL
Clouds: scattered clouds at 2000 feet AGL
Weather: no significant weather observed at this time

Forecast for: AMD
Text: TAF AMD LXGB 231726Z 2318/2323 09010KT 9999 FEW018
Forecast period: 1800 to 2300 UTC 23 October 2021
Forecast type: FROM: standard forecast or significant change
Winds: from the E (90 degrees) at 12 MPH (10 knots; 5.1 m/s)
Visibility: 6 or more miles (10+ km)
Ceiling: at least 12,000 feet AGL
Clouds: few clouds at 1800 feet AGL
Weather: no significant weather forecast for this period
Text: PROB40
Forecast period: 1800 to 2300 UTC 23 October 2021
Forecast type: TEMPORARY: The following changes expected for less than half the time period
Visibility: missing
Ceiling: at least 12,000 feet AGL
Clouds: scattered clouds at 1800 feet AGL
Weather: no significant weather forecast for this period